createdAt,value
2022-07-28T00:01:24.208Z,71.62
2022-07-28T00:03:50.838Z,71.46
2022-07-28T00:06:17.686Z,71.40
2022-07-28T00:08:44.257Z,71.74
2022-07-28T00:11:10.760Z,71.63
2022-07-28T00:13:37.634Z,72.72
2022-07-28T00:16:04.542Z,73.37
2022-07-28T00:18:31.043Z,73.08
2022-07-28T00:20:58.250Z,73.60
2022-07-28T00:23:35.895Z,73.79
2022-07-28T00:26:06.006Z,73.55
2022-07-28T00:28:32.490Z,74.73
2022-07-28T00:30:59.052Z,74.68
2022-07-28T00:33:32.425Z,74.80
2022-07-28T00:35:58.875Z,75.04
2022-07-28T00:38:26.416Z,75.68
2022-07-28T00:41:11.038Z,75.59
2022-07-28T00:43:44.828Z,76.08
2022-07-28T00:46:12.442Z,76.28
2022-07-28T00:48:40.406Z,76.56
2022-07-28T00:51:10.498Z,76.85
2022-07-28T00:53:38.296Z,76.79
2022-07-28T00:56:06.935Z,77.73
2022-07-28T00:58:34.708Z,78.08
2022-07-28T01:01:01.300Z,79.26
2022-07-28T01:03:29.089Z,78.07
2022-07-28T01:06:33.303Z,79.08
2022-07-28T01:09:31.220Z,78.93
2022-07-28T01:12:17.511Z,79.19
2022-07-28T01:14:52.491Z,78.76
2022-07-28T01:17:40.330Z,78.68
2022-07-28T01:20:12.630Z,79.18
2022-07-28T01:23:11.406Z,79.62
2022-07-28T01:25:51.565Z,79.66
2022-07-28T01:28:29.430Z,79.41
2022-07-28T01:31:04.086Z,79.38
2022-07-28T01:33:52.688Z,80.15
2022-07-28T01:36:23.368Z,80.37
2022-07-28T01:38:50.427Z,80.40
2022-07-28T01:41:21.200Z,81.00
2022-07-28T01:43:53.927Z,82.37
2022-07-28T01:46:20.780Z,82.57
2022-07-28T01:48:47.763Z,81.40
2022-07-28T01:51:15.225Z,82.10
2022-07-28T01:53:43.597Z,82.69
2022-07-28T01:56:10.438Z,83.19
2022-07-28T01:58:37.504Z,83.11
2022-07-28T02:01:05.022Z,83.37
2022-07-28T02:03:32.872Z,83.78
2022-07-28T02:06:02.668Z,83.45
2022-07-28T02:08:31.511Z,83.51
2022-07-28T02:11:18.256Z,85.82
2022-07-28T02:13:46.412Z,85.76
2022-07-28T02:16:13.899Z,85.60
2022-07-28T02:18:41.164Z,86.17
2022-07-28T02:21:08.163Z,86.09
2022-07-28T02:23:35.154Z,86.79
2022-07-28T02:26:05.005Z,86.31
2022-07-28T02:28:31.625Z,87.45
2022-07-28T02:31:06.941Z,86.92
2022-07-28T02:33:59.023Z,87.30
2022-07-28T02:36:26.565Z,87.07
2022-07-28T02:38:54.985Z,87.34
2022-07-28T02:41:25.658Z,86.94
2022-07-28T02:43:55.485Z,86.67
2022-07-28T02:46:27.705Z,86.67
2022-07-28T02:48:59.570Z,86.92
2022-07-28T02:51:27.394Z,87.03
2022-07-28T02:53:54.131Z,87.46
2022-07-28T02:56:21.017Z,86.81
2022-07-28T02:58:48.039Z,87.34
2022-07-28T03:01:17.836Z,87.72
2022-07-28T03:03:46.252Z,87.48
2022-07-28T03:06:12.865Z,87.21
2022-07-28T03:08:39.472Z,87.78
2022-07-28T03:11:14.038Z,88.67
2022-07-28T03:13:40.690Z,88.80
2022-07-28T03:16:07.798Z,89.12
2022-07-28T03:18:35.150Z,89.56
2022-07-28T03:21:01.892Z,89.04
2022-07-28T03:23:40.640Z,88.88
2022-07-28T03:26:13.595Z,87.90
2022-07-28T03:28:40.545Z,87.79
2022-07-28T03:31:10.186Z,87.67
2022-07-28T03:33:37.270Z,88.03
2022-07-28T03:36:11.391Z,86.92
2022-07-28T03:38:41.940Z,86.93
2022-07-28T03:41:09.698Z,86.67
2022-07-28T03:43:36.391Z,86.77
2022-07-28T03:46:03.320Z,86.58
2022-07-28T03:48:30.946Z,86.42
2022-07-28T03:50:58.242Z,86.14
2022-07-28T03:53:27.250Z,86.30
2022-07-28T03:55:54.165Z,86.49
2022-07-28T03:58:25.946Z,87.05
2022-07-28T04:00:55.790Z,87.29
2022-07-28T04:03:42.395Z,87.88
2022-07-28T04:06:09.407Z,87.69
2022-07-28T04:08:36.160Z,87.88
2022-07-28T04:11:02.826Z,88.65
2022-07-28T04:13:32.070Z,88.88
2022-07-28T04:15:59.501Z,87.42
2022-07-28T04:18:26.026Z,87.88
2022-07-28T04:20:52.667Z,87.93
2022-07-28T04:23:20.795Z,86.81
2022-07-28T04:25:47.440Z,86.33
2022-07-28T04:28:14.325Z,85.96
2022-07-28T04:30:43.821Z,86.08
2022-07-28T04:33:10.925Z,86.52
2022-07-28T04:35:38.097Z,85.73
2022-07-28T04:38:04.670Z,84.85
2022-07-28T04:40:31.217Z,84.36
2022-07-28T04:42:58.018Z,82.33
2022-07-28T04:45:24.574Z,81.53
2022-07-28T04:47:51.857Z,80.89
2022-07-28T04:50:20.817Z,79.74
2022-07-28T04:52:49.362Z,79.72
2022-07-28T04:55:16.520Z,80.26
2022-07-28T04:57:43.756Z,80.24
2022-07-28T05:00:14.719Z,80.33
2022-07-28T05:02:43.108Z,81.55
2022-07-28T05:05:10.407Z,81.37
2022-07-28T05:07:38.131Z,81.56
2022-07-28T05:10:06.402Z,81.24
2022-07-28T05:12:33.042Z,80.87
2022-07-28T05:14:59.811Z,81.00
2022-07-28T05:17:27.279Z,81.24
2022-07-28T05:19:54.113Z,81.23
2022-07-28T05:22:20.763Z,80.85
2022-07-28T05:24:47.237Z,81.26
2022-07-28T05:27:13.825Z,80.61
2022-07-28T05:29:47.436Z,80.29
2022-07-28T05:32:16.697Z,80.61
2022-07-28T05:34:47.448Z,79.51
2022-07-28T05:37:13.916Z,78.18
2022-07-28T05:39:40.452Z,77.10
2022-07-28T05:42:07.058Z,76.43
2022-07-28T05:44:37.851Z,76.79
2022-07-28T05:47:05.287Z,76.05
2022-07-28T05:49:31.826Z,75.57
2022-07-28T05:51:58.299Z,70.98
2022-07-28T05:54:25.082Z,68.91
2022-07-28T05:56:52.551Z,64.74
2022-07-28T05:59:19.179Z,59.67
2022-07-28T06:01:48.649Z,54.94
2022-07-28T06:04:31.129Z,52.28
2022-07-28T06:06:58.227Z,49.96
2022-07-28T06:09:24.739Z,46.08
2022-07-28T06:11:51.286Z,40.73
2022-07-28T06:14:18.893Z,39.73
2022-07-28T06:16:50.992Z,38.78
2022-07-28T06:19:18.407Z,37.16
2022-07-28T06:21:45.124Z,35.62
2022-07-28T06:24:12.133Z,33.29
2022-07-28T06:26:44.257Z,31.85
2022-07-28T06:29:11.725Z,30.75
2022-07-28T06:31:39.162Z,31.86
2022-07-28T06:34:05.966Z,29.33
2022-07-28T06:36:32.756Z,27.52
2022-07-28T06:38:59.217Z,27.28
2022-07-28T06:41:25.720Z,28.00
2022-07-28T06:43:52.585Z,27.64
2022-07-28T06:46:19.724Z,26.53
2022-07-28T06:48:46.583Z,26.67
2022-07-28T06:51:15.124Z,26.79
2022-07-28T06:53:41.826Z,25.67
2022-07-28T06:56:09.135Z,26.58
2022-07-28T06:58:40.617Z,26.13
2022-07-28T07:01:10.514Z,26.48
2022-07-28T07:03:37.298Z,28.34
2022-07-28T07:06:06.673Z,27.59
2022-07-28T07:08:33.318Z,27.07
2022-07-28T07:11:00.034Z,25.63
2022-07-28T07:13:26.864Z,25.32
2022-07-28T07:15:53.422Z,25.82
2022-07-28T07:18:19.999Z,25.84
2022-07-28T07:20:46.927Z,25.59
2022-07-28T07:23:14.705Z,25.75
2022-07-28T07:25:41.600Z,25.44
2022-07-28T07:28:08.201Z,26.34
2022-07-28T07:30:34.870Z,26.08
2022-07-28T07:33:01.373Z,26.55
2022-07-28T07:35:28.337Z,25.00
2022-07-28T07:37:56.067Z,27.17
2022-07-28T07:40:22.671Z,27.52
2022-07-28T07:42:49.432Z,28.50
2022-07-28T07:45:15.970Z,30.91
2022-07-28T07:47:42.576Z,32.66
2022-07-28T07:50:09.432Z,33.13
2022-07-28T07:52:36.347Z,34.28
2022-07-28T07:55:04.539Z,35.47
2022-07-28T07:57:31.426Z,35.19
2022-07-28T07:59:58.074Z,35.37
2022-07-28T08:02:24.635Z,35.91
2022-07-28T08:04:51.362Z,36.59
2022-07-28T08:07:18.019Z,37.72
2022-07-28T08:09:48.734Z,37.26
2022-07-28T08:12:15.372Z,38.83
2022-07-28T08:14:41.945Z,37.11
2022-07-28T08:17:14.481Z,37.25
2022-07-28T08:19:41.623Z,37.58
2022-07-28T08:22:08.370Z,38.00
2022-07-28T08:24:35.013Z,37.49
2022-07-28T08:27:05.142Z,37.82
2022-07-28T08:29:32.189Z,37.81
2022-07-28T08:31:59.128Z,38.31
2022-07-28T08:34:31.489Z,38.94
2022-07-28T08:37:04.912Z,39.57
2022-07-28T08:39:32.936Z,38.77
2022-07-28T08:42:12.159Z,38.96
2022-07-28T08:44:46.167Z,38.94
2022-07-28T08:47:13.268Z,38.86
2022-07-28T08:49:44.881Z,39.14
2022-07-28T08:52:13.327Z,38.39
2022-07-28T08:54:46.281Z,38.51
2022-07-28T08:57:32.696Z,37.19
2022-07-28T08:59:59.556Z,37.81
2022-07-28T09:02:27.289Z,38.78
2022-07-28T09:04:55.813Z,38.60
2022-07-28T09:07:26.931Z,40.47
2022-07-28T09:09:57.137Z,40.69
2022-07-28T09:12:29.112Z,39.05
2022-07-28T09:14:55.893Z,40.14
2022-07-28T09:17:22.482Z,40.75
2022-07-28T09:19:49.259Z,38.86
2022-07-28T09:22:15.771Z,38.11
2022-07-28T09:24:44.956Z,39.41
2022-07-28T09:27:13.575Z,39.08
2022-07-28T09:29:42.091Z,39.33
2022-07-28T09:32:09.106Z,38.71
2022-07-28T09:34:40.811Z,38.85
2022-07-28T09:37:16.233Z,38.96
2022-07-28T09:39:47.045Z,37.91
2022-07-28T09:42:13.849Z,39.27
2022-07-28T09:44:47.388Z,38.92
2022-07-28T09:47:33.212Z,39.40
2022-07-28T09:50:00.166Z,40.10
2022-07-28T09:52:31.586Z,39.35
2022-07-28T09:55:09.060Z,39.66
2022-07-28T09:57:37.700Z,39.53
2022-07-28T10:00:11.399Z,40.36
2022-07-28T10:02:38.651Z,40.52
2022-07-28T10:05:06.243Z,40.08
2022-07-28T10:07:34.418Z,39.64
2022-07-28T10:10:04.596Z,39.08
2022-07-28T10:12:36.165Z,39.95
2022-07-28T10:15:38.166Z,39.71
2022-07-28T10:18:14.822Z,39.09
2022-07-28T10:20:41.532Z,39.09
2022-07-28T10:23:11.656Z,39.84
2022-07-28T10:25:40.376Z,39.93
2022-07-28T10:28:08.555Z,38.98
2022-07-28T10:30:41.107Z,39.29
2022-07-28T10:33:14.520Z,39.66
2022-07-28T10:35:54.849Z,39.40
2022-07-28T10:38:22.727Z,39.64
2022-07-28T10:40:50.662Z,40.10
2022-07-28T10:43:17.144Z,39.55
2022-07-28T10:46:08.872Z,40.13
2022-07-28T10:48:30.765Z,39.95
2022-07-28T10:50:57.799Z,40.52
2022-07-28T10:53:38.446Z,40.42
2022-07-28T10:56:13.547Z,39.70
2022-07-28T10:58:47.998Z,40.24
2022-07-28T11:01:48.302Z,40.24
2022-07-28T11:04:40.952Z,39.41
2022-07-28T11:07:17.417Z,39.26
2022-07-28T11:09:44.955Z,40.31
2022-07-28T11:12:17.391Z,40.81
2022-07-28T11:14:44.977Z,39.01
2022-07-28T11:17:15.922Z,38.86
2022-07-28T11:22:35.162Z,39.20
2022-07-28T11:25:18.995Z,38.78
2022-07-28T11:27:49.970Z,36.68
2022-07-28T11:30:19.710Z,36.98
2022-07-28T11:32:53.552Z,36.50
2022-07-28T11:35:26.969Z,37.18
2022-07-28T11:38:03.386Z,38.98
2022-07-28T11:40:33.260Z,38.29
2022-07-28T11:43:33.341Z,37.16
2022-07-28T11:46:09.620Z,38.14
2022-07-28T11:48:38.040Z,37.51
2022-07-28T11:51:04.669Z,37.15
2022-07-28T11:53:52.987Z,37.65
2022-07-28T11:56:24.124Z,36.22
2022-07-28T11:59:04.701Z,37.48
2022-07-28T12:01:32.462Z,36.82
2022-07-28T12:04:15.437Z,35.90
2022-07-28T12:06:43.166Z,34.92
2022-07-28T12:09:11.311Z,35.68
2022-07-28T12:11:41.342Z,35.98
2022-07-28T12:14:14.950Z,35.26
2022-07-28T12:16:43.727Z,34.66
2022-07-28T12:19:11.347Z,34.22
2022-07-28T12:21:46.126Z,34.57
2022-07-28T12:24:18.715Z,35.23
2022-07-28T12:26:49.691Z,36.02
2022-07-28T12:29:17.490Z,35.91
2022-07-28T12:32:03.038Z,35.36
2022-07-28T12:34:31.409Z,34.66
2022-07-28T12:36:59.834Z,33.41
2022-07-28T12:39:26.622Z,32.34
2022-07-28T12:42:01.055Z,32.77
2022-07-28T12:44:35.462Z,32.18
2022-07-28T12:47:03.256Z,33.71
2022-07-28T12:49:29.758Z,34.61
2022-07-28T12:51:58.717Z,35.73
2022-07-28T12:54:37.953Z,35.30
2022-07-28T12:57:07.560Z,33.56
2022-07-28T12:59:35.869Z,34.38
2022-07-28T13:02:03.178Z,33.08
2022-07-28T13:04:48.182Z,32.59
2022-07-28T13:07:23.763Z,33.30
2022-07-28T13:10:04.972Z,35.03
2022-07-28T13:12:32.027Z,33.52
2022-07-28T13:15:06.901Z,32.39
2022-07-28T13:17:51.171Z,31.83
2022-07-28T13:20:18.632Z,32.78
2022-07-28T13:22:45.690Z,31.76
2022-07-28T13:25:12.950Z,31.80
2022-07-28T13:27:41.029Z,32.68
2022-07-28T13:30:09.472Z,33.54
2022-07-28T13:32:36.676Z,33.74
2022-07-28T13:35:05.010Z,34.19
2022-07-28T13:37:31.537Z,34.74
2022-07-28T13:39:58.070Z,34.15
2022-07-28T13:42:24.858Z,33.69
2022-07-28T13:44:51.463Z,32.79
2022-07-28T13:47:18.093Z,33.37
2022-07-28T13:49:44.835Z,32.58
2022-07-28T13:52:17.175Z,32.75
2022-07-28T13:54:56.123Z,34.02
2022-07-28T13:57:22.722Z,30.87
2022-07-28T13:59:51.851Z,32.18
2022-07-28T14:02:20.766Z,30.76
2022-07-28T14:04:52.551Z,31.04
2022-07-28T14:07:21.100Z,31.20
2022-07-28T14:09:50.357Z,33.11
2022-07-28T14:12:17.269Z,31.73
2022-07-28T14:14:48.042Z,32.86
2022-07-28T14:17:40.241Z,34.23
2022-07-28T14:20:02.635Z,33.88
2022-07-28T14:22:29.363Z,33.82
2022-07-28T14:24:55.936Z,33.38
2022-07-28T14:27:27.169Z,33.62
2022-07-28T14:29:55.830Z,34.05
2022-07-28T14:32:23.126Z,33.22
2022-07-28T14:34:50.592Z,32.91
2022-07-28T14:37:17.883Z,31.66
2022-07-28T14:39:44.595Z,31.97
2022-07-28T14:42:11.219Z,31.41
2022-07-28T14:44:37.847Z,31.44
2022-07-28T14:47:05.034Z,31.50
2022-07-28T14:49:31.715Z,31.86
2022-07-28T14:51:59.602Z,31.51
2022-07-28T14:54:27.826Z,31.75
2022-07-28T14:56:54.799Z,32.10
2022-07-28T14:59:21.547Z,32.75
2022-07-28T15:01:48.868Z,31.93
2022-07-28T15:04:16.453Z,33.49
2022-07-28T15:06:43.534Z,33.85
2022-07-28T15:09:10.267Z,32.90
2022-07-28T15:11:37.492Z,31.39
2022-07-28T15:14:04.597Z,30.76
2022-07-28T15:16:31.255Z,30.92
2022-07-28T15:18:58.283Z,29.70
2022-07-28T15:21:25.050Z,29.85
2022-07-28T15:23:51.647Z,32.35
2022-07-28T15:26:18.160Z,32.10
2022-07-28T15:28:46.121Z,31.84
2022-07-28T15:31:12.691Z,31.29
2022-07-28T15:33:48.337Z,30.96
2022-07-28T15:36:25.343Z,31.82
2022-07-28T15:38:53.287Z,30.82
2022-07-28T15:41:20.331Z,31.27
2022-07-28T15:43:47.151Z,33.19
2022-07-28T15:46:14.319Z,33.46
2022-07-28T15:48:42.832Z,32.68
2022-07-28T15:51:09.932Z,32.62
2022-07-28T15:53:37.171Z,32.52
2022-07-28T15:56:05.071Z,32.16
2022-07-28T15:58:31.791Z,32.80
2022-07-28T16:01:00.983Z,35.08
2022-07-28T16:03:29.720Z,34.60
2022-07-28T16:05:56.426Z,34.66
2022-07-28T16:08:23.412Z,34.56
2022-07-28T16:10:51.255Z,35.00
2022-07-28T16:13:22.683Z,35.74
2022-07-28T16:16:00.429Z,35.08
2022-07-28T16:18:27.287Z,35.54
2022-07-28T16:20:53.759Z,35.67
2022-07-28T16:23:20.559Z,35.87
2022-07-28T16:25:47.180Z,35.45
2022-07-28T16:28:14.150Z,36.55
2022-07-28T16:30:40.862Z,35.29
2022-07-28T16:33:08.425Z,36.94
2022-07-28T16:35:35.057Z,34.79
2022-07-28T16:38:05.334Z,35.14
2022-07-28T16:40:32.768Z,34.95
2022-07-28T16:43:03.892Z,34.99
2022-07-28T16:45:31.363Z,34.62
2022-07-28T16:47:58.948Z,34.92
2022-07-28T16:50:25.879Z,35.44
2022-07-28T16:52:55.592Z,34.02
2022-07-28T16:55:23.976Z,34.24
2022-07-28T16:57:51.495Z,34.46
2022-07-28T17:00:18.522Z,35.13
2022-07-28T17:02:45.397Z,35.22
2022-07-28T17:05:12.718Z,35.70
2022-07-28T17:07:45.320Z,36.73
2022-07-28T17:10:14.253Z,36.29
2022-07-28T17:12:40.923Z,36.79
2022-07-28T17:15:07.994Z,37.46
2022-07-28T17:17:50.055Z,37.90
2022-07-28T17:20:17.048Z,37.30
2022-07-28T17:22:44.736Z,38.11
2022-07-28T17:27:58.169Z,38.36
2022-07-28T17:30:24.864Z,39.10
2022-07-28T17:32:52.521Z,38.63
2022-07-28T17:35:34.707Z,38.99
2022-07-28T17:38:02.817Z,39.36
2022-07-28T17:40:29.431Z,39.75
2022-07-28T17:42:56.010Z,40.08
2022-07-28T17:45:24.107Z,40.11
2022-07-28T17:47:50.677Z,40.52
2022-07-28T17:50:17.539Z,40.18
2022-07-28T17:52:44.696Z,40.35
2022-07-28T17:55:31.079Z,40.21
2022-07-28T17:58:08.842Z,40.89
2022-07-28T18:00:35.559Z,40.96
2022-07-28T18:03:02.430Z,41.29
2022-07-28T18:05:39.116Z,41.14
2022-07-28T18:08:07.607Z,42.25
2022-07-28T18:10:34.498Z,43.30
2022-07-28T18:13:01.295Z,43.82
2022-07-28T18:15:28.749Z,44.84
2022-07-28T18:17:57.739Z,45.96
2022-07-28T18:20:25.486Z,46.88
2022-07-28T18:22:52.120Z,46.12
2022-07-28T18:25:18.900Z,46.26
2022-07-28T18:27:47.965Z,47.17
2022-07-28T18:30:15.309Z,49.32
2022-07-28T18:32:42.063Z,50.36
2022-07-28T18:35:09.264Z,50.99
2022-07-28T18:37:36.544Z,51.48
2022-07-28T18:40:04.481Z,52.02
2022-07-28T18:42:32.212Z,51.48
2022-07-28T18:44:58.838Z,51.18
2022-07-28T18:47:27.982Z,52.56
2022-07-28T18:49:55.663Z,53.55
2022-07-28T18:52:24.942Z,54.40
2022-07-28T18:54:51.798Z,54.07
2022-07-28T18:57:18.891Z,54.40
2022-07-28T18:59:51.688Z,55.34
2022-07-28T19:02:18.883Z,55.42
2022-07-28T19:04:47.057Z,55.21
2022-07-28T19:07:16.029Z,55.63
2022-07-28T19:09:42.935Z,56.43
2022-07-28T19:12:09.978Z,58.00
2022-07-28T19:14:36.856Z,58.77
2022-07-28T19:17:05.589Z,58.52
2022-07-28T19:19:36.688Z,58.78
2022-07-28T19:22:09.775Z,60.16
2022-07-28T19:24:36.890Z,60.27
2022-07-28T19:27:05.591Z,60.11
2022-07-28T19:29:33.336Z,60.75
2022-07-28T19:32:03.783Z,61.06
2022-07-28T19:34:30.343Z,62.06
2022-07-28T19:36:57.762Z,63.21
2022-07-28T19:39:24.505Z,63.63
2022-07-28T19:41:51.262Z,63.77
2022-07-28T19:44:18.152Z,64.13
2022-07-28T19:46:45.511Z,64.34
2022-07-28T19:49:12.724Z,64.47
2022-07-28T19:51:39.349Z,64.80
2022-07-28T19:54:06.218Z,64.96
2022-07-28T19:56:32.898Z,65.22
2022-07-28T19:59:00.982Z,65.73
2022-07-28T20:01:27.841Z,66.28
2022-07-28T20:04:01.719Z,66.54
2022-07-28T20:06:30.998Z,67.95
2022-07-28T20:08:57.669Z,68.33
2022-07-28T20:11:24.136Z,68.84
2022-07-28T20:13:50.902Z,69.61
2022-07-28T20:16:18.057Z,69.49
2022-07-28T20:18:44.699Z,67.29
2022-07-28T20:21:11.365Z,69.72
2022-07-28T20:23:38.896Z,69.55
2022-07-28T20:26:05.408Z,69.49
2022-07-28T20:28:31.857Z,69.83
2022-07-28T20:30:58.429Z,70.12
2022-07-28T20:33:24.900Z,70.54
2022-07-28T20:35:53.209Z,69.80
2022-07-28T20:38:23.415Z,69.96
2022-07-28T20:40:50.838Z,70.54
2022-07-28T20:43:17.371Z,71.82
2022-07-28T20:45:45.127Z,72.34
2022-07-28T20:48:14.569Z,72.49
2022-07-28T20:50:42.301Z,73.18
2022-07-28T20:53:10.204Z,73.27
2022-07-28T20:55:37.107Z,74.05
2022-07-28T20:58:05.894Z,74.01
2022-07-28T21:00:32.652Z,74.10
2022-07-28T21:02:59.216Z,74.13
2022-07-28T21:05:35.045Z,74.92
2022-07-28T21:08:05.707Z,74.86
2022-07-28T21:10:33.478Z,74.81
2022-07-28T21:13:00.088Z,74.94
2022-07-28T21:15:26.839Z,75.30
2022-07-28T21:17:57.105Z,75.43
2022-07-28T21:20:24.441Z,75.74
2022-07-28T21:22:51.529Z,75.94
2022-07-28T21:25:18.157Z,76.14
2022-07-28T21:28:03.826Z,76.51
2022-07-28T21:30:30.553Z,76.56
2022-07-28T21:32:57.307Z,75.52
2022-07-28T21:35:24.419Z,74.11
2022-07-28T21:37:51.331Z,73.83
2022-07-28T21:40:17.869Z,73.84
2022-07-28T21:42:46.997Z,74.20
2022-07-28T21:45:13.609Z,74.20
2022-07-28T21:47:40.742Z,74.44
2022-07-28T21:50:08.212Z,74.41
2022-07-28T21:52:36.505Z,74.96
2022-07-28T21:55:04.034Z,74.60
2022-07-28T21:57:30.579Z,75.48
2022-07-28T21:59:57.161Z,76.14
2022-07-28T22:02:24.037Z,76.83
2022-07-28T22:04:51.789Z,77.46
2022-07-28T22:07:18.366Z,77.24
2022-07-28T22:09:45.142Z,77.71
2022-07-28T22:12:12.059Z,78.27
2022-07-28T22:14:38.784Z,78.25
2022-07-28T22:17:05.261Z,78.55
2022-07-28T22:19:31.977Z,78.81
2022-07-28T22:21:58.843Z,78.74
2022-07-28T22:24:25.464Z,79.74
2022-07-28T22:26:52.441Z,79.89
2022-07-28T22:29:19.003Z,79.98
2022-07-28T22:31:45.842Z,79.31
2022-07-28T22:34:12.705Z,78.69
2022-07-28T22:36:39.305Z,78.87
2022-07-28T22:39:06.054Z,78.34
2022-07-28T22:41:32.596Z,78.19
2022-07-28T22:43:59.249Z,78.01
2022-07-28T22:46:25.860Z,77.96
2022-07-28T22:48:52.522Z,77.83
2022-07-28T22:51:19.294Z,77.75
2022-07-28T22:53:45.766Z,77.31
2022-07-28T22:56:12.390Z,76.85
2022-07-28T22:58:40.088Z,76.86
2022-07-28T23:01:06.620Z,76.96
2022-07-28T23:03:33.909Z,77.25
2022-07-28T23:06:01.124Z,76.68
2022-07-28T23:08:28.101Z,76.48
2022-07-28T23:10:55.162Z,76.62
2022-07-28T23:13:22.341Z,76.48
2022-07-28T23:15:48.951Z,76.80
2022-07-28T23:18:15.568Z,76.33
2022-07-28T23:20:43.434Z,76.50
2022-07-28T23:23:10.808Z,76.51
2022-07-28T23:25:41.009Z,77.15
2022-07-28T23:28:07.739Z,76.84
2022-07-28T23:30:34.210Z,76.58
2022-07-28T23:33:00.865Z,77.05
2022-07-28T23:35:27.607Z,77.00
2022-07-28T23:37:54.158Z,76.95
2022-07-28T23:40:20.900Z,77.00
2022-07-28T23:42:47.544Z,77.10
2022-07-28T23:45:14.239Z,77.27
2022-07-28T23:47:40.826Z,77.38
2022-07-28T23:50:07.751Z,77.59
2022-07-28T23:52:34.216Z,77.59
2022-07-28T23:55:00.829Z,77.69
2022-07-28T23:57:31.112Z,78.58
